createdAt,value
2023-04-22T00:02:06.743Z,82.72
2023-04-22T00:04:34.230Z,82.64
2023-04-22T00:07:01.467Z,82.41
2023-04-22T00:09:28.107Z,82.01
2023-04-22T00:11:54.711Z,81.69
2023-04-22T00:14:21.657Z,80.95
2023-04-22T00:16:48.265Z,81.22
2023-04-22T00:19:14.871Z,80.54
2023-04-22T00:21:41.597Z,80.37
2023-04-22T00:24:08.339Z,80.97
2023-04-22T00:26:34.988Z,81.19
2023-04-22T00:29:01.628Z,81.26
2023-04-22T00:31:28.299Z,82.17
2023-04-22T00:33:54.913Z,82.82
2023-04-22T00:36:21.471Z,83.00
2023-04-22T00:38:51.323Z,83.01
2023-04-22T00:41:18.268Z,82.33
2023-04-22T00:43:45.413Z,81.86
2023-04-22T00:46:12.168Z,82.19
2023-04-22T00:48:38.859Z,82.29
2023-04-22T00:51:06.263Z,81.86
2023-04-22T00:53:32.894Z,82.74
2023-04-22T00:55:59.750Z,82.75
2023-04-22T00:58:29.025Z,83.23
2023-04-22T01:00:55.886Z,83.58
2023-04-22T01:03:24.083Z,83.09
2023-04-22T01:05:51.076Z,83.79
2023-04-22T01:08:17.755Z,84.17
2023-04-22T01:10:44.361Z,84.03
2023-04-22T01:13:10.933Z,83.82
2023-04-22T01:15:37.736Z,83.71
2023-04-22T01:18:04.735Z,83.60
2023-04-22T01:20:32.051Z,83.87
2023-04-22T01:23:01.044Z,84.02
2023-04-22T01:25:27.635Z,84.30
2023-04-22T01:27:54.302Z,84.97
2023-04-22T01:30:21.544Z,84.98
2023-04-22T01:32:48.341Z,84.33
2023-04-22T01:35:14.955Z,85.01
2023-04-22T01:37:41.603Z,85.32
2023-04-22T01:40:10.367Z,85.63
2023-04-22T01:42:37.181Z,86.19
2023-04-22T01:45:04.353Z,86.57
2023-04-22T01:47:31.045Z,86.30
2023-04-22T01:49:57.760Z,86.22
2023-04-22T01:52:26.428Z,86.57
2023-04-22T01:54:53.207Z,86.47
2023-04-22T01:57:19.766Z,87.25
2023-04-22T01:59:46.388Z,87.76
2023-04-22T02:02:12.976Z,88.05
2023-04-22T02:04:39.636Z,88.35
2023-04-22T02:07:06.438Z,87.83
2023-04-22T02:09:33.888Z,87.84
2023-04-22T02:12:01.463Z,87.65
2023-04-22T02:14:28.077Z,88.19
2023-04-22T02:16:54.657Z,87.87
2023-04-22T02:19:21.261Z,87.86
2023-04-22T02:21:47.867Z,87.78
2023-04-22T02:24:14.472Z,88.21
2023-04-22T02:26:41.549Z,88.57
2023-04-22T02:29:08.120Z,88.03
2023-04-22T02:31:34.796Z,88.10
2023-04-22T02:34:01.456Z,87.99
2023-04-22T02:36:28.714Z,88.57
2023-04-22T02:38:55.589Z,89.65
2023-04-22T02:41:22.193Z,90.11
2023-04-22T02:43:48.982Z,90.51
2023-04-22T02:46:18.594Z,89.93
2023-04-22T02:48:45.171Z,89.76
2023-04-22T02:51:11.935Z,89.88
2023-04-22T02:53:38.580Z,89.59
2023-04-22T02:56:05.768Z,89.91
2023-04-22T02:58:32.434Z,90.49
2023-04-22T03:00:59.040Z,90.38
2023-04-22T03:03:26.056Z,90.23
2023-04-22T03:05:52.903Z,89.87
2023-04-22T03:08:19.995Z,89.79
2023-04-22T03:10:46.746Z,89.05
2023-04-22T03:13:14.300Z,89.66
2023-04-22T03:15:41.559Z,90.87
2023-04-22T03:18:08.968Z,91.86
2023-04-22T03:20:36.047Z,92.17
2023-04-22T03:23:02.669Z,92.40
2023-04-22T03:25:29.346Z,92.78
2023-04-22T03:27:57.158Z,92.72
2023-04-22T03:30:23.931Z,92.54
2023-04-22T03:32:51.099Z,92.38
2023-04-22T03:35:17.824Z,91.70
2023-04-22T03:37:44.425Z,91.95
2023-04-22T03:40:13.508Z,91.45
2023-04-22T03:42:40.274Z,92.06
2023-04-22T03:45:07.602Z,91.91
2023-04-22T03:47:34.247Z,92.81
2023-04-22T03:50:00.946Z,93.20
2023-04-22T03:52:27.536Z,92.91
2023-04-22T03:54:54.154Z,92.88
2023-04-22T03:57:20.700Z,92.59
2023-04-22T03:59:47.315Z,91.92
2023-04-22T04:02:13.987Z,92.68
2023-04-22T04:04:41.160Z,92.92
2023-04-22T04:07:08.370Z,93.26
2023-04-22T04:09:34.939Z,93.37
2023-04-22T04:12:01.482Z,93.64
2023-04-22T04:14:28.107Z,93.26
2023-04-22T04:16:54.695Z,92.55
2023-04-22T04:19:21.559Z,92.35
2023-04-22T04:21:48.193Z,92.93
2023-04-22T04:24:14.773Z,92.80
2023-04-22T04:26:41.617Z,92.97
2023-04-22T04:29:08.707Z,93.32
2023-04-22T04:31:35.385Z,93.65
2023-04-22T04:34:02.032Z,93.92
2023-04-22T04:36:29.416Z,94.47
2023-04-22T04:38:56.838Z,94.47
2023-04-22T04:41:23.764Z,95.07
2023-04-22T04:43:50.433Z,95.24
2023-04-22T04:46:17.099Z,95.54
2023-04-22T04:48:46.001Z,95.62
2023-04-22T04:51:13.057Z,95.74
2023-04-22T04:53:40.694Z,95.89
2023-04-22T04:56:07.236Z,95.85
2023-04-22T04:58:33.951Z,95.39
2023-04-22T05:01:00.550Z,95.70
2023-04-22T05:03:27.252Z,95.49
2023-04-22T05:05:54.107Z,95.59
2023-04-22T05:08:20.752Z,95.42
2023-04-22T05:10:47.403Z,95.56
2023-04-22T05:13:14.070Z,95.47
2023-04-22T05:15:40.713Z,95.23
2023-04-22T05:18:07.575Z,95.73
2023-04-22T05:20:36.178Z,95.25
2023-04-22T05:23:03.033Z,94.58
2023-04-22T05:25:29.923Z,94.59
2023-04-22T05:27:56.467Z,94.99
2023-04-22T05:30:23.039Z,93.93
2023-04-22T05:32:49.660Z,93.40
2023-04-22T05:35:16.281Z,92.97
2023-04-22T05:37:42.871Z,93.03
2023-04-22T05:40:09.822Z,93.22
2023-04-22T05:42:36.515Z,92.70
2023-04-22T05:45:03.128Z,92.15
2023-04-22T05:47:30.523Z,92.33
2023-04-22T05:49:57.130Z,91.84
2023-04-22T05:52:23.688Z,91.54
2023-04-22T05:54:50.262Z,91.82
2023-04-22T05:57:16.891Z,90.60
2023-04-22T05:59:43.625Z,90.24
2023-04-22T06:02:10.370Z,88.93
2023-04-22T06:04:38.101Z,88.78
2023-04-22T06:07:04.960Z,88.17
2023-04-22T06:09:31.508Z,88.03
2023-04-22T06:11:58.253Z,87.68
2023-04-22T06:14:24.861Z,87.65
2023-04-22T06:16:53.025Z,85.70
2023-04-22T06:19:19.895Z,85.67
2023-04-22T06:21:46.496Z,86.03
2023-04-22T06:24:13.120Z,85.58
2023-04-22T06:26:39.798Z,85.73
2023-04-22T06:29:06.631Z,86.88
2023-04-22T06:31:33.260Z,87.21
2023-04-22T06:33:59.924Z,87.35
2023-04-22T06:36:30.288Z,87.85
2023-04-22T06:38:57.247Z,87.89
2023-04-22T06:41:24.007Z,84.96
2023-04-22T06:43:50.806Z,82.23
2023-04-22T06:46:17.802Z,76.85
2023-04-22T06:48:44.560Z,77.89
2023-04-22T06:51:11.174Z,78.36
2023-04-22T06:53:37.751Z,76.32
2023-04-22T06:56:05.448Z,73.76
2023-04-22T06:58:32.013Z,71.60
2023-04-22T07:00:58.643Z,67.15
2023-04-22T07:03:25.323Z,69.30
2023-04-22T07:05:51.996Z,67.79
2023-04-22T07:08:19.712Z,68.26
2023-04-22T07:10:46.265Z,67.98
2023-04-22T07:13:12.852Z,63.25
2023-04-22T07:15:39.435Z,67.15
2023-04-22T07:18:06.051Z,60.96
2023-04-22T07:20:32.660Z,63.59
2023-04-22T07:22:59.224Z,59.99
2023-04-22T07:25:25.785Z,61.32
2023-04-22T07:27:52.358Z,56.51
2023-04-22T07:30:19.015Z,56.39
2023-04-22T07:32:47.576Z,52.44
2023-04-22T07:35:15.462Z,53.37
2023-04-22T07:37:42.074Z,53.48
2023-04-22T07:40:11.856Z,52.77
2023-04-22T07:42:39.683Z,50.25
2023-04-22T07:45:06.936Z,48.75
2023-04-22T07:47:33.535Z,47.82
2023-04-22T07:50:00.250Z,43.24
2023-04-22T07:52:26.787Z,44.76
2023-04-22T07:54:53.376Z,44.19
2023-04-22T07:57:22.525Z,42.90
2023-04-22T07:59:49.863Z,43.57
2023-04-22T08:02:16.535Z,45.17
2023-04-22T08:04:43.587Z,43.46
2023-04-22T08:07:29.695Z,42.58
2023-04-22T08:09:56.901Z,43.92
2023-04-22T08:12:23.765Z,43.34
2023-04-22T08:14:50.733Z,44.07
2023-04-22T08:17:17.416Z,42.10
2023-04-22T08:19:45.616Z,42.14
2023-04-22T08:22:13.576Z,41.91
2023-04-22T08:24:40.376Z,41.03
2023-04-22T08:27:07.280Z,41.52
2023-04-22T08:29:34.097Z,39.56
2023-04-22T08:32:01.006Z,36.88
2023-04-22T08:34:28.935Z,38.28
2023-04-22T08:36:55.520Z,36.63
2023-04-22T08:39:22.082Z,36.91
2023-04-22T08:41:50.341Z,35.28
2023-04-22T08:44:17.291Z,36.98
2023-04-22T08:46:46.957Z,35.15
2023-04-22T08:49:17.689Z,37.30
2023-04-22T08:51:46.082Z,33.12
2023-04-22T08:54:12.798Z,37.86
2023-04-22T08:56:42.288Z,37.68
2023-04-22T08:59:11.494Z,32.84
2023-04-22T09:01:41.838Z,33.75
2023-04-22T09:04:14.555Z,34.14
2023-04-22T09:06:41.365Z,32.63
2023-04-22T09:09:09.110Z,32.95
2023-04-22T09:11:36.494Z,33.16
2023-04-22T09:14:06.747Z,33.79
2023-04-22T09:16:34.326Z,35.02
2023-04-22T09:19:01.628Z,34.57
2023-04-22T09:21:29.091Z,34.61
2023-04-22T09:23:57.093Z,35.52
2023-04-22T09:26:26.138Z,36.21
2023-04-22T09:29:00.961Z,31.94
2023-04-22T09:31:28.702Z,31.90
2023-04-22T09:33:57.641Z,30.40
2023-04-22T09:36:28.284Z,30.23
2023-04-22T09:38:57.577Z,30.83
2023-04-22T09:41:31.589Z,33.32
2023-04-22T09:44:02.883Z,33.35
2023-04-22T09:46:31.132Z,34.63
2023-04-22T09:49:01.760Z,35.50
2023-04-22T09:51:29.358Z,33.63
2023-04-22T09:54:08.639Z,31.28
2023-04-22T09:56:52.101Z,33.15
2023-04-22T09:59:26.582Z,30.18
2023-04-22T10:01:56.008Z,29.33
2023-04-22T10:04:24.868Z,28.57
2023-04-22T10:06:54.871Z,29.70
2023-04-22T10:09:24.277Z,29.70
2023-04-22T10:11:54.122Z,31.16
2023-04-22T10:14:24.273Z,29.68
2023-04-22T10:16:54.441Z,29.18
2023-04-22T10:19:23.368Z,29.20
2023-04-22T10:21:56.738Z,29.02
2023-04-22T10:24:27.617Z,28.76
2023-04-22T10:26:57.781Z,28.22
2023-04-22T10:29:36.107Z,27.42
2023-04-22T10:32:17.932Z,27.72
2023-04-22T10:34:48.239Z,26.85
2023-04-22T10:37:18.817Z,27.28
2023-04-22T10:40:07.814Z,28.06
2023-04-22T10:42:35.334Z,27.59
2023-04-22T10:45:04.114Z,27.97
2023-04-22T10:47:36.866Z,30.18
2023-04-22T10:50:28.741Z,28.85
2023-04-22T10:53:20.921Z,26.70
2023-04-22T10:55:53.672Z,27.60
2023-04-22T10:58:22.004Z,28.87
2023-04-22T11:00:54.209Z,26.96
2023-04-22T11:03:27.905Z,25.77
2023-04-22T11:06:16.194Z,25.92
2023-04-22T11:08:47.827Z,24.92
2023-04-22T11:11:16.606Z,25.87
2023-04-22T11:13:44.100Z,25.96
2023-04-22T11:16:10.940Z,26.28
2023-04-22T11:18:38.000Z,26.53
2023-04-22T11:21:08.456Z,27.03
2023-04-22T11:23:36.850Z,28.75
2023-04-22T11:26:05.733Z,26.84
2023-04-22T11:28:33.540Z,26.90
2023-04-22T11:31:09.933Z,28.13
2023-04-22T11:33:39.149Z,27.47
2023-04-22T11:36:10.093Z,27.63
2023-04-22T11:38:36.689Z,27.59
2023-04-22T11:41:04.999Z,29.97
2023-04-22T11:43:34.189Z,27.54
2023-04-22T11:46:00.907Z,28.15
2023-04-22T11:48:27.580Z,28.89
2023-04-22T11:51:11.064Z,28.43
2023-04-22T11:53:39.556Z,28.62
2023-04-22T11:56:06.252Z,27.85
2023-04-22T11:58:32.949Z,28.63
2023-04-22T12:00:59.822Z,27.31
2023-04-22T12:03:28.818Z,26.31
2023-04-22T12:05:58.491Z,26.88
2023-04-22T12:08:42.147Z,25.79
2023-04-22T12:11:10.721Z,25.71
2023-04-22T12:13:37.256Z,25.91
2023-04-22T12:16:05.622Z,26.02
2023-04-22T12:18:34.090Z,25.52
2023-04-22T12:21:08.064Z,26.77
2023-04-22T12:24:04.955Z,25.98
2023-04-22T12:26:32.068Z,27.41
2023-04-22T12:29:00.393Z,27.68
2023-04-22T12:31:28.274Z,26.84
2023-04-22T12:33:56.011Z,25.55
2023-04-22T12:36:23.386Z,25.44
2023-04-22T12:38:51.139Z,25.44
2023-04-22T12:41:17.771Z,25.45
2023-04-22T12:43:44.485Z,23.73
2023-04-22T12:46:11.321Z,24.88
2023-04-22T12:48:38.131Z,24.92
2023-04-22T12:51:08.184Z,24.05
2023-04-22T12:53:35.043Z,23.27
2023-04-22T12:56:01.646Z,22.77
2023-04-22T12:58:28.235Z,22.83
2023-04-22T13:00:54.866Z,23.35
2023-04-22T13:03:21.757Z,23.82
2023-04-22T13:05:48.520Z,25.71
2023-04-22T13:08:15.130Z,25.44
2023-04-22T13:10:41.701Z,24.12
2023-04-22T13:15:39.135Z,25.03
2023-04-22T13:18:06.105Z,25.77
2023-04-22T13:20:32.833Z,25.21
2023-04-22T13:22:59.411Z,25.89
2023-04-22T13:25:26.047Z,25.70
2023-04-22T13:27:52.675Z,26.28
2023-04-22T13:30:20.113Z,25.21
2023-04-22T13:32:46.894Z,26.23
2023-04-22T13:35:13.555Z,26.79
2023-04-22T13:37:40.131Z,25.95
2023-04-22T13:40:08.300Z,25.64
2023-04-22T13:42:35.164Z,26.52
2023-04-22T13:45:01.732Z,26.40
2023-04-22T13:47:28.327Z,26.02
2023-04-22T13:49:54.893Z,26.64
2023-04-22T13:52:21.809Z,26.62
2023-04-22T13:54:48.366Z,26.78
2023-04-22T13:57:15.001Z,26.17
2023-04-22T13:59:42.230Z,26.57
2023-04-22T14:02:09.071Z,27.07
2023-04-22T14:04:35.794Z,26.09
2023-04-22T14:07:04.068Z,26.29
2023-04-22T14:09:31.047Z,26.66
2023-04-22T14:11:58.290Z,25.52
2023-04-22T14:14:24.882Z,26.24
2023-04-22T14:16:51.996Z,25.51
2023-04-22T14:19:18.744Z,26.11
2023-04-22T14:21:45.719Z,26.99
2023-04-22T14:24:12.335Z,25.95
2023-04-22T14:26:39.046Z,26.32
2023-04-22T14:29:05.857Z,26.52
2023-04-22T14:31:32.464Z,28.49
2023-04-22T14:33:59.038Z,28.25
2023-04-22T14:36:25.615Z,28.17
2023-04-22T14:38:52.179Z,27.46
2023-04-22T14:41:18.856Z,28.83
2023-04-22T14:43:45.687Z,29.26
2023-04-22T14:46:12.334Z,28.36
2023-04-22T14:48:39.440Z,27.95
2023-04-22T14:51:06.346Z,29.66
2023-04-22T14:53:33.784Z,26.43
2023-04-22T14:56:00.615Z,28.18
2023-04-22T14:58:31.184Z,27.16
2023-04-22T15:00:59.912Z,27.43
2023-04-22T15:03:26.901Z,26.11
2023-04-22T15:05:55.027Z,27.99
2023-04-22T15:08:21.770Z,27.40
2023-04-22T15:10:48.331Z,28.89
2023-04-22T15:13:14.999Z,30.55
2023-04-22T15:15:41.638Z,29.53
2023-04-22T15:18:08.970Z,28.17
2023-04-22T15:20:35.905Z,30.35
2023-04-22T15:23:03.614Z,27.49
2023-04-22T15:25:30.634Z,27.29
2023-04-22T15:27:57.365Z,26.40
2023-04-22T15:30:24.201Z,28.64
2023-04-22T15:32:50.873Z,28.30
2023-04-22T15:35:17.946Z,27.57
2023-04-22T15:37:46.199Z,29.61
2023-04-22T15:40:12.843Z,30.93
2023-04-22T15:42:39.444Z,28.14
2023-04-22T15:45:06.832Z,28.32
2023-04-22T15:47:34.785Z,28.43
2023-04-22T15:50:08.890Z,29.68
2023-04-22T15:52:37.741Z,30.18
2023-04-22T15:55:06.163Z,30.05
2023-04-22T15:57:34.954Z,30.59
2023-04-22T16:00:13.037Z,30.65
2023-04-22T16:02:41.846Z,30.79
2023-04-22T16:05:09.179Z,28.80
2023-04-22T16:07:35.817Z,27.68
2023-04-22T16:10:02.698Z,29.01
2023-04-22T16:12:30.460Z,29.43
2023-04-22T16:14:57.957Z,29.71
2023-04-22T16:17:25.088Z,27.60
2023-04-22T16:19:51.789Z,27.35
2023-04-22T16:22:20.125Z,25.18
2023-04-22T16:24:46.700Z,25.31
2023-04-22T16:27:16.635Z,25.04
2023-04-22T16:29:43.865Z,26.53
2023-04-22T16:32:11.000Z,27.61
2023-04-22T16:34:38.343Z,24.76
2023-04-22T16:37:05.779Z,27.77
2023-04-22T16:39:32.795Z,27.51
2023-04-22T16:41:59.804Z,27.93
2023-04-22T16:44:26.443Z,27.56
2023-04-22T16:46:53.021Z,26.86
2023-04-22T16:49:19.750Z,24.98
2023-04-22T16:51:46.530Z,25.51
2023-04-22T16:54:13.241Z,26.85
2023-04-22T16:56:39.901Z,24.12
2023-04-22T16:59:06.472Z,26.35
2023-04-22T17:01:33.139Z,27.00
2023-04-22T17:03:59.917Z,26.55
2023-04-22T17:06:28.053Z,27.94
2023-04-22T17:08:54.706Z,28.13
2023-04-22T17:11:22.221Z,29.72
2023-04-22T17:13:48.905Z,30.32
2023-04-22T17:16:15.678Z,30.84
2023-04-22T17:18:42.595Z,30.93
2023-04-22T17:21:09.472Z,31.56
2023-04-22T17:23:36.337Z,32.53
2023-04-22T17:26:02.953Z,33.71
2023-04-22T17:28:29.609Z,33.79
2023-04-22T17:30:56.316Z,33.03
2023-04-22T17:33:23.239Z,34.48
2023-04-22T17:35:49.793Z,34.20
2023-04-22T17:38:16.386Z,34.29
2023-04-22T17:40:43.800Z,33.94
2023-04-22T17:43:10.712Z,34.56
2023-04-22T17:45:37.274Z,36.66
2023-04-22T17:48:04.128Z,36.40
2023-04-22T17:50:30.776Z,39.93
2023-04-22T17:52:58.108Z,38.99
2023-04-22T17:55:24.809Z,39.42
2023-04-22T17:57:54.040Z,39.97
2023-04-22T18:00:21.968Z,41.08
2023-04-22T18:02:48.820Z,40.59
2023-04-22T18:05:15.475Z,40.73
2023-04-22T18:07:42.067Z,39.44
2023-04-22T18:10:09.660Z,41.70
2023-04-22T18:12:36.286Z,41.91
2023-04-22T18:15:03.484Z,47.05
2023-04-22T18:17:30.659Z,47.13
2023-04-22T18:20:09.831Z,48.39
2023-04-22T18:22:44.026Z,47.95
2023-04-22T18:25:10.615Z,48.92
2023-04-22T18:27:37.291Z,51.42
2023-04-22T18:30:04.316Z,51.24
2023-04-22T18:32:31.028Z,49.66
2023-04-22T18:34:57.635Z,52.15
2023-04-22T18:37:24.766Z,53.92
2023-04-22T18:39:51.330Z,52.64
2023-04-22T18:42:18.454Z,53.33
2023-04-22T18:44:45.035Z,53.71
2023-04-22T18:47:11.767Z,53.25
2023-04-22T18:49:38.416Z,53.01
2023-04-22T18:52:05.249Z,54.08
2023-04-22T18:54:31.831Z,53.75
2023-04-22T18:56:58.462Z,58.55
2023-04-22T18:59:25.091Z,56.86
2023-04-22T19:01:51.896Z,57.26
2023-04-22T19:04:18.610Z,56.64
2023-04-22T19:06:45.350Z,58.30
2023-04-22T19:09:11.974Z,61.18
2023-04-22T19:11:38.763Z,59.74
2023-04-22T19:14:05.699Z,59.20
2023-04-22T19:16:32.326Z,60.39
2023-04-22T19:18:58.948Z,60.07
2023-04-22T19:21:26.789Z,59.91
2023-04-22T19:23:53.405Z,62.35
2023-04-22T19:26:21.060Z,60.87
2023-04-22T19:28:48.740Z,61.97
2023-04-22T19:31:19.015Z,64.97
2023-04-22T19:33:46.080Z,64.33
2023-04-22T19:36:12.682Z,63.18
2023-04-22T19:38:39.238Z,63.44
2023-04-22T19:41:05.806Z,63.34
2023-04-22T19:43:32.432Z,64.48
2023-04-22T19:45:59.130Z,64.68
2023-04-22T19:48:26.246Z,64.42
2023-04-22T19:50:53.400Z,65.67
2023-04-22T19:53:21.719Z,65.13
2023-04-22T19:55:48.686Z,64.11
2023-04-22T19:58:16.525Z,66.53
2023-04-22T20:00:43.692Z,65.48
2023-04-22T20:03:10.807Z,69.08
2023-04-22T20:05:37.709Z,66.11
2023-04-22T20:08:07.633Z,67.83
2023-04-22T20:10:34.403Z,67.68
2023-04-22T20:13:03.309Z,68.61
2023-04-22T20:15:30.144Z,69.22
2023-04-22T20:17:56.909Z,68.89
2023-04-22T20:20:23.868Z,69.20
2023-04-22T20:22:53.394Z,68.50
2023-04-22T20:25:23.086Z,69.01
2023-04-22T20:27:49.865Z,69.90
2023-04-22T20:30:16.727Z,69.90
2023-04-22T20:32:43.506Z,70.35
2023-04-22T20:35:15.091Z,70.78
2023-04-22T20:37:42.785Z,71.47
2023-04-22T20:40:11.209Z,73.33
2023-04-22T20:42:37.923Z,70.51
2023-04-22T20:45:05.717Z,72.48
2023-04-22T20:47:32.612Z,72.24
2023-04-22T20:49:59.435Z,71.64
2023-04-22T20:52:26.114Z,72.44
2023-04-22T20:54:55.198Z,72.53
2023-04-22T20:57:21.861Z,72.03
2023-04-22T20:59:48.407Z,71.96
2023-04-22T21:02:16.998Z,72.22
2023-04-22T21:04:43.914Z,71.70
2023-04-22T21:07:14.378Z,70.87
2023-04-22T21:09:41.682Z,71.11
2023-04-22T21:12:10.490Z,70.59
2023-04-22T21:14:43.263Z,70.32
2023-04-22T21:17:21.630Z,71.27
2023-04-22T21:19:50.753Z,71.64
2023-04-22T21:22:20.233Z,70.74
2023-04-22T21:24:51.721Z,71.56
2023-04-22T21:27:19.724Z,71.17
2023-04-22T21:29:46.852Z,72.37
2023-04-22T21:32:13.604Z,72.99
2023-04-22T21:34:40.583Z,73.55
2023-04-22T21:37:08.129Z,73.67
2023-04-22T21:39:35.543Z,73.57
2023-04-22T21:42:03.077Z,73.36
2023-04-22T21:44:29.650Z,73.47
2023-04-22T21:46:56.277Z,74.68
2023-04-22T21:49:23.167Z,74.44
2023-04-22T21:51:50.092Z,73.46
2023-04-22T21:54:16.715Z,75.71
2023-04-22T21:56:43.396Z,75.70
2023-04-22T21:59:09.960Z,74.51
2023-04-22T22:01:36.582Z,74.53
2023-04-22T22:04:03.463Z,74.64
2023-04-22T22:06:30.929Z,74.94
2023-04-22T22:08:57.506Z,75.65
2023-04-22T22:11:30.447Z,75.87
2023-04-22T22:13:58.315Z,75.78
2023-04-22T22:16:25.754Z,75.80
2023-04-22T22:18:52.672Z,75.38
2023-04-22T22:21:19.270Z,76.27
2023-04-22T22:23:45.934Z,76.95
2023-04-22T22:26:12.772Z,77.47
2023-04-22T22:28:39.607Z,78.23
2023-04-22T22:31:08.041Z,78.00
2023-04-22T22:33:34.702Z,77.91
2023-04-22T22:36:01.441Z,77.07
2023-04-22T22:38:27.972Z,78.41
2023-04-22T22:40:54.526Z,78.61
2023-04-22T22:43:21.103Z,79.76
2023-04-22T22:45:47.889Z,79.12
2023-04-22T22:48:14.593Z,79.47
2023-04-22T22:50:41.169Z,80.08
2023-04-22T22:53:07.754Z,80.38
2023-04-22T22:55:34.712Z,80.86
2023-04-22T22:58:01.253Z,80.36
2023-04-22T23:00:27.964Z,80.72
2023-04-22T23:02:55.624Z,80.80
2023-04-22T23:05:22.391Z,81.20
2023-04-22T23:07:48.935Z,81.10
2023-04-22T23:10:15.795Z,81.49
2023-04-22T23:12:42.501Z,81.85
2023-04-22T23:15:10.526Z,82.32
2023-04-22T23:17:37.577Z,81.81
2023-04-22T23:20:04.821Z,82.14
2023-04-22T23:22:32.886Z,81.67
2023-04-22T23:24:59.689Z,82.07
2023-04-22T23:27:26.537Z,82.57
2023-04-22T23:29:53.399Z,82.83
2023-04-22T23:32:21.317Z,82.84
2023-04-22T23:34:50.903Z,82.80
2023-04-22T23:37:19.182Z,83.32
2023-04-22T23:39:45.944Z,83.79
2023-04-22T23:42:12.574Z,83.99
2023-04-22T23:44:39.390Z,84.59
2023-04-22T23:47:06.405Z,84.01
2023-04-22T23:49:33.004Z,84.24
2023-04-22T23:51:59.632Z,84.27
2023-04-22T23:54:26.945Z,84.87
2023-04-22T23:56:53.981Z,85.21
2023-04-22T23:59:20.788Z,85.07
